Time;durP1;ratioP1;P1;durP2;ratioP2;P2;SDS_P1;SDS_P2;PMS_P1;PMS_P2;Temp;Humidity;BMP_temperature;BMP_pressure;BME280_temperature;BME280_humidity;BME280_pressure;Samples;Min_cycle;Max_cycle;Signal;HPM_P1;HPM_P2
2022/11/01 00:02:04;;;;;;;13.40;4.88;;;;;;;;;;5087484;28;20044;-77
2022/11/01 00:04:30;;;;;;;17.65;5.80;;;;;;;;;;5089433;28;20021;-76
2022/11/01 00:06:56;;;;;;;15.07;4.57;;;;;;;;;;5094380;28;20484;-76
2022/11/01 00:09:22;;;;;;;11.10;4.30;;;;;;;;;;5087935;28;20032;-77
2022/11/01 00:11:48;;;;;;;16.10;5.55;;;;;;;;;;5082073;28;20025;-77
2022/11/01 00:14:15;;;;;;;14.45;4.07;;;;;;;;;;5057316;28;20032;-77
2022/11/01 00:16:41;;;;;;;11.70;4.22;;;;;;;;;;5086868;28;20461;-77
2022/11/01 00:19:08;;;;;;;16.38;4.05;;;;;;;;;;5081297;28;20035;-77
2022/11/01 00:21:34;;;;;;;12.55;4.38;;;;;;;;;;5087463;28;20134;-76
2022/11/01 00:24:00;;;;;;;15.07;4.38;;;;;;;;;;5086719;28;20119;-77
2022/11/01 00:26:26;;;;;;;16.25;5.28;;;;;;;;;;5081189;28;20131;-77
2022/11/01 00:28:52;;;;;;;16.92;4.78;;;;;;;;;;5075446;28;20044;-77
2022/11/01 00:31:19;;;;;;;20.50;4.30;;;;;;;;;;5083093;28;20034;-76
2022/11/01 00:33:45;;;;;;;14.23;4.43;;;;;;;;;;5081257;28;20104;-77
2022/11/01 00:36:11;;;;;;;15.02;4.57;;;;;;;;;;5075545;28;20048;-77
2022/11/01 00:38:37;;;;;;;11.65;4.30;;;;;;;;;;5079081;28;20029;-77
2022/11/01 00:41:03;;;;;;;12.90;4.57;;;;;;;;;;5074036;28;20035;-77
2022/11/01 00:43:33;;;;;;;12.40;4.55;;;;;;;;;;5080424;28;20474;-77
2022/11/01 00:46:00;;;;;;;11.65;4.70;;;;;;;;;;5076415;28;20042;-77
2022/11/01 00:48:26;;;;;;;15.40;5.25;;;;;;;;;;5079264;28;20048;-77
2022/11/01 00:50:52;;;;;;;14.48;4.85;;;;;;;;;;5085629;28;20028;-77
2022/11/01 00:53:18;;;;;;;14.65;4.18;;;;;;;;;;5079664;28;20552;-77
2022/11/01 00:55:44;;;;;;;14.18;4.63;;;;;;;;;;5075757;28;20050;-77
2022/11/01 00:58:10;;;;;;;11.43;4.22;;;;;;;;;;5083263;28;20062;-77
2022/11/01 01:00:36;;;;;;;13.43;4.90;;;;;;;;;;5079949;28;20068;-77
2022/11/01 01:03:03;;;;;;;15.50;4.38;;;;;;;;;;5074956;28;20390;-77
2022/11/01 01:05:29;;;;;;;13.30;4.55;;;;;;;;;;5086208;28;20036;-77
2022/11/01 01:07:55;;;;;;;10.50;3.70;;;;;;;;;;5087338;28;20496;-77
2022/11/01 01:10:21;;;;;;;18.35;4.07;;;;;;;;;;5079515;28;20162;-77
2022/11/01 01:12:47;;;;;;;11.63;4.90;;;;;;;;;;5073677;28;20028;-77
2022/11/01 01:15:13;;;;;;;15.02;4.75;;;;;;;;;;5084219;28;20105;-77
2022/11/01 01:17:39;;;;;;;18.60;5.50;;;;;;;;;;5076457;28;20656;-77
2022/11/01 01:20:06;;;;;;;14.70;5.72;;;;;;;;;;5080303;28;20818;-77
2022/11/01 01:22:32;;;;;;;18.60;5.18;;;;;;;;;;5078722;28;20417;-77
2022/11/01 01:24:58;;;;;;;15.18;4.40;;;;;;;;;;5078565;28;20048;-77
2022/11/01 01:27:24;;;;;;;12.02;4.47;;;;;;;;;;5076990;28;20044;-77
2022/11/01 01:29:51;;;;;;;13.68;5.18;;;;;;;;;;5082939;28;20029;-77
2022/11/01 01:32:21;;;;;;;17.75;5.60;;;;;;;;;;5075449;28;20401;-77
2022/11/01 01:34:47;;;;;;;19.35;7.00;;;;;;;;;;5076478;28;20036;-77
2022/11/01 01:37:16;;;;;;;13.75;5.43;;;;;;;;;;5076162;28;20090;-77
2022/11/01 01:39:42;;;;;;;15.88;5.45;;;;;;;;;;5078067;28;20036;-77
2022/11/01 01:42:14;;;;;;;14.80;5.78;;;;;;;;;;5081404;28;20032;-77
2022/11/01 01:44:53;;;;;;;16.10;4.57;;;;;;;;;;5081807;28;20036;-77
2022/11/01 01:47:21;;;;;;;13.55;4.45;;;;;;;;;;5093223;28;20047;-77
2022/11/01 01:49:48;;;;;;;13.60;5.50;;;;;;;;;;5086472;28;20034;-77
2022/11/01 01:52:14;;;;;;;17.80;5.53;;;;;;;;;;5080329;28;20404;-77
2022/11/01 01:54:41;;;;;;;16.65;5.05;;;;;;;;;;5092004;28;20105;-77
2022/11/01 01:57:08;;;;;;;15.02;5.30;;;;;;;;;;5080210;28;20040;-77
2022/11/01 01:59:35;;;;;;;17.92;5.18;;;;;;;;;;5077373;28;20031;-77
2022/11/01 02:02:01;;;;;;;22.65;5.57;;;;;;;;;;5083018;28;20076;-76
2022/11/01 02:04:42;;;;;;;20.13;5.80;;;;;;;;;;5081023;28;20496;-77
2022/11/01 02:07:08;;;;;;;17.00;5.70;;;;;;;;;;5085305;28;20041;-77
2022/11/01 02:09:35;;;;;;;22.33;6.50;;;;;;;;;;5077617;28;20021;-77
2022/11/01 02:12:01;;;;;;;16.17;5.95;;;;;;;;;;5078199;28;20047;-77
2022/11/01 02:14:28;;;;;;;14.63;6.25;;;;;;;;;;5084969;28;20048;-77
2022/11/01 02:16:57;;;;;;;13.15;5.65;;;;;;;;;;5082550;28;20040;-77
2022/11/01 02:19:42;;;;;;;18.10;5.95;;;;;;;;;;5079516;28;20024;-77
2022/11/01 02:22:24;;;;;;;15.98;7.22;;;;;;;;;;5079349;28;20080;-77
2022/11/01 02:25:02;;;;;;;13.00;4.53;;;;;;;;;;5073936;28;20743;-77
2022/11/01 02:27:31;;;;;;;13.45;5.90;;;;;;;;;;5072109;28;20656;-77
2022/11/01 02:30:04;;;;;;;16.27;5.82;;;;;;;;;;5080006;28;20024;-77
2022/11/01 02:32:35;;;;;;;15.70;5.78;;;;;;;;;;5074034;28;20063;-77
2022/11/01 02:35:10;;;;;;;16.65;5.78;;;;;;;;;;5084129;28;20029;-77
2022/11/01 02:37:47;;;;;;;19.05;6.43;;;;;;;;;;5086991;28;20051;-77
2022/11/01 02:40:20;;;;;;;16.42;6.07;;;;;;;;;;5077305;28;20488;-77
2022/11/01 02:42:49;;;;;;;17.63;5.40;;;;;;;;;;5085060;28;20504;-77
2022/11/01 02:45:33;;;;;;;18.05;5.82;;;;;;;;;;5079730;28;20036;-77
2022/11/01 02:48:00;;;;;;;18.92;5.55;;;;;;;;;;5075443;28;20477;-77
2022/11/01 02:50:27;;;;;;;21.02;5.80;;;;;;;;;;5074469;28;20131;-77
2022/11/01 02:52:54;;;;;;;16.25;5.55;;;;;;;;;;5074484;28;20036;-77
2022/11/01 02:55:32;;;;;;;16.67;5.63;;;;;;;;;;5075738;28;20020;-77
2022/11/01 02:58:03;;;;;;;19.67;5.45;;;;;;;;;;5075775;28;20035;-76
2022/11/01 03:00:34;;;;;;;21.05;7.20;;;;;;;;;;5087867;28;20085;-77
2022/11/01 03:03:06;;;;;;;15.15;6.55;;;;;;;;;;5067631;28;21056;-76
2022/11/01 03:05:32;;;;;;;;;;;;;;;;;;5073695;28;20062;-77
2022/11/01 03:08:03;;;;;;;15.15;5.93;;;;;;;;;;5071373;28;19963;-77
2022/11/01 03:10:35;;;;;;;15.60;6.05;;;;;;;;;;5077038;28;21018;-77
2022/11/01 03:13:13;;;;;;;15.30;7.65;;;;;;;;;;5078662;28;20032;-77
2022/11/01 03:15:43;;;;;;;29.13;11.65;;;;;;;;;;5080482;28;20024;-77
2022/11/01 03:18:17;;;;;;;29.42;13.85;;;;;;;;;;5080986;28;20043;-77
2022/11/01 03:20:46;;;;;;;22.73;10.23;;;;;;;;;;5080880;28;20032;-77
2022/11/01 03:23:18;;;;;;;19.45;8.25;;;;;;;;;;5072385;28;20063;-77
2022/11/01 03:25:50;;;;;;;17.25;8.55;;;;;;;;;;5084494;28;20082;-77
2022/11/01 03:28:24;;;;;;;17.73;8.73;;;;;;;;;;5076499;28;20028;-77
2022/11/01 03:30:53;;;;;;;17.50;7.80;;;;;;;;;;5087428;28;20380;-77
2022/11/01 03:33:20;;;;;;;25.70;7.97;;;;;;;;;;5071791;28;20477;-77
2022/11/01 03:35:48;;;;;;;13.82;6.50;;;;;;;;;;5078821;28;20033;-78
2022/11/01 03:38:16;;;;;;;14.98;6.28;;;;;;;;;;5080767;28;20043;-77
2022/11/01 03:40:45;;;;;;;16.40;7.07;;;;;;;;;;5080396;28;20116;-77
2022/11/01 03:43:13;;;;;;;16.67;7.93;;;;;;;;;;5078481;28;20416;-77
2022/11/01 03:45:39;;;;;;;22.30;8.20;;;;;;;;;;5078230;28;20036;-77
2022/11/01 03:48:06;;;;;;;17.08;7.47;;;;;;;;;;5079714;28;20028;-76
2022/11/01 03:50:32;;;;;;;16.75;6.75;;;;;;;;;;5072413;28;20033;-76
2022/11/01 03:52:58;;;;;;;15.20;5.93;;;;;;;;;;5076159;28;20387;-76
2022/11/01 03:55:24;;;;;;;16.08;7.40;;;;;;;;;;5084308;28;20466;-77
2022/11/01 03:57:54;;;;;;;21.15;6.80;;;;;;;;;;5075563;28;20040;-76
2022/11/01 04:00:22;;;;;;;17.00;7.07;;;;;;;;;;5069423;28;20048;-76
2022/11/01 04:02:49;;;;;;;16.63;7.10;;;;;;;;;;5076691;28;20028;-76
2022/11/01 04:05:15;;;;;;;14.55;7.13;;;;;;;;;;5080810;28;20068;-76
2022/11/01 04:07:42;;;;;;;16.52;8.00;;;;;;;;;;5069882;28;20599;-77
2022/11/01 04:10:08;;;;;;;21.23;10.25;;;;;;;;;;5072255;28;20043;-77
2022/11/01 04:12:34;;;;;;;18.35;8.63;;;;;;;;;;5077569;28;20059;-76
2022/11/01 04:20:33;;;;;;;17.52;7.80;;;;;;;;;;5073447;28;20047;-77
2022/11/01 04:22:59;;;;;;;18.30;8.68;;;;;;;;;;5072106;28;20076;-77
2022/11/01 04:25:25;;;;;;;20.58;6.95;;;;;;;;;;5079256;28;20048;-77
2022/11/01 04:27:51;;;;;;;19.38;6.97;;;;;;;;;;5076053;28;20453;-76
2022/11/01 04:30:17;;;;;;;21.25;7.95;;;;;;;;;;5079227;28;20032;-77
2022/11/01 04:32:44;;;;;;;14.98;6.28;;;;;;;;;;5080258;28;20059;-77
2022/11/01 04:35:13;;;;;;;17.95;6.90;;;;;;;;;;5068896;28;20029;-77
2022/11/01 04:37:39;;;;;;;19.90;7.68;;;;;;;;;;5069905;28;20078;-76
2022/11/01 04:40:08;;;;;;;22.05;9.95;;;;;;;;;;5071978;28;20381;-77
2022/11/01 04:42:35;;;;;;;19.95;10.35;;;;;;;;;;5072728;28;20485;-76
2022/11/01 04:45:01;;;;;;;17.05;9.52;;;;;;;;;;5068537;28;20116;-76
2022/11/01 04:47:27;;;;;;;29.85;9.90;;;;;;;;;;5079746;28;20047;-77
2022/11/01 04:49:53;;;;;;;21.50;8.35;;;;;;;;;;5088779;28;20683;-77
2022/11/01 04:52:19;;;;;;;18.58;8.82;;;;;;;;;;5078109;28;20044;-76
2022/11/01 04:54:45;;;;;;;29.60;11.63;;;;;;;;;;5071586;28;20381;-76
2022/11/01 04:57:21;;;;;;;17.05;8.93;;;;;;;;;;5077935;28;20044;-76
2022/11/01 04:59:54;;;;;;;16.42;8.15;;;;;;;;;;5083260;28;20031;-77
2022/11/01 05:02:21;;;;;;;19.70;7.80;;;;;;;;;;5074711;28;20111;-76
2022/11/01 05:04:47;;;;;;;20.45;7.20;;;;;;;;;;5078010;28;20028;-77
2022/11/01 05:07:14;;;;;;;20.52;8.23;;;;;;;;;;5075774;28;20071;-77
2022/11/01 05:09:40;;;;;;;22.05;7.43;;;;;;;;;;5075658;28;20047;-76
2022/11/01 05:12:06;;;;;;;17.58;6.78;;;;;;;;;;5075011;28;20040;-76
2022/11/01 05:14:32;;;;;;;15.38;6.13;;;;;;;;;;5083324;28;20569;-76
2022/11/01 05:16:59;;;;;;;24.25;7.40;;;;;;;;;;5074214;28;20039;-76
2022/11/01 05:19:25;;;;;;;15.40;5.32;;;;;;;;;;5078689;28;20059;-76
2022/11/01 05:21:51;;;;;;;17.92;5.82;;;;;;;;;;5075146;28;20082;-76
2022/11/01 05:24:17;;;;;;;15.68;6.40;;;;;;;;;;5074765;28;20066;-76
2022/11/01 05:26:43;;;;;;;11.52;5.15;;;;;;;;;;5088295;28;20052;-76
2022/11/01 05:29:09;;;;;;;15.73;6.32;;;;;;;;;;5079114;28;20093;-76
2022/11/01 05:31:36;;;;;;;18.73;6.97;;;;;;;;;;5071873;28;20052;-76
2022/11/01 05:34:02;;;;;;;19.88;6.63;;;;;;;;;;5076209;28;20051;-76
2022/11/01 05:36:28;;;;;;;13.25;5.47;;;;;;;;;;5072366;28;20056;-76
2022/11/01 05:38:58;;;;;;;14.90;4.88;;;;;;;;;;5075712;28;20032;-76
2022/11/01 05:41:24;;;;;;;12.45;4.95;;;;;;;;;;5088132;28;20765;-76
2022/11/01 05:43:50;;;;;;;19.35;5.45;;;;;;;;;;5082783;28;20027;-75
2022/11/01 05:46:16;;;;;;;14.43;4.75;;;;;;;;;;5079325;28;20508;-76
2022/11/01 05:48:42;;;;;;;16.40;4.57;;;;;;;;;;5074334;28;20123;-76
2022/11/01 05:51:09;;;;;;;14.25;4.53;;;;;;;;;;5077616;28;20470;-76
2022/11/01 05:53:35;;;;;;;13.30;4.75;;;;;;;;;;5084180;28;20074;-76
2022/11/01 05:56:01;;;;;;;16.02;5.00;;;;;;;;;;5088921;28;20031;-76
2022/11/01 05:58:27;;;;;;;15.13;4.53;;;;;;;;;;5082822;28;20050;-76
2022/11/01 06:01:04;;;;;;;13.38;4.28;;;;;;;;;;5083545;28;20468;-76
2022/11/01 06:03:30;;;;;;;13.45;3.92;;;;;;;;;;5071317;28;20119;-76
2022/11/01 06:05:56;;;;;;;14.57;4.40;;;;;;;;;;5089269;28;20032;-76
2022/11/01 06:08:22;;;;;;;14.52;4.82;;;;;;;;;;5087159;28;20074;-76
2022/11/01 06:10:48;;;;;;;13.82;3.78;;;;;;;;;;5074526;28;20677;-76
2022/11/01 06:13:14;;;;;;;14.07;3.65;;;;;;;;;;5083043;28;20115;-76
2022/11/01 06:15:40;;;;;;;17.70;4.07;;;;;;;;;;5076402;28;20107;-76
2022/11/01 06:18:07;;;;;;;14.38;3.50;;;;;;;;;;5073261;28;20116;-76
2022/11/01 06:20:33;;;;;;;10.25;3.45;;;;;;;;;;5082999;28;20103;-76
2022/11/01 06:22:59;;;;;;;14.32;4.43;;;;;;;;;;5080291;28;20067;-76
2022/11/01 06:25:26;;;;;;;10.15;3.88;;;;;;;;;;5083214;28;20079;-76
2022/11/01 06:27:55;;;;;;;19.85;6.60;;;;;;;;;;5092572;28;20139;-76
2022/11/01 06:30:21;;;;;;;16.92;5.20;;;;;;;;;;5086112;28;20070;-76
2022/11/01 06:32:47;;;;;;;15.63;5.75;;;;;;;;;;5096045;28;20069;-76
2022/11/01 06:35:13;;;;;;;15.27;6.10;;;;;;;;;;5083926;28;20036;-76
2022/11/01 06:37:39;;;;;;;16.17;5.07;;;;;;;;;;5071504;28;20107;-76
2022/11/01 06:40:06;;;;;;;14.05;4.10;;;;;;;;;;5081952;28;20037;-76
2022/11/01 06:42:32;;;;;;;14.88;4.05;;;;;;;;;;5076172;28;20140;-76
2022/11/01 06:44:58;;;;;;;16.38;5.45;;;;;;;;;;5084221;28;20545;-76
2022/11/01 06:47:24;;;;;;;18.90;5.05;;;;;;;;;;5084044;28;20069;-76
2022/11/01 06:49:50;;;;;;;13.23;4.22;;;;;;;;;;5097252;28;20031;-75
2022/11/01 06:52:16;;;;;;;16.95;5.00;;;;;;;;;;5089769;28;20082;-76
2022/11/01 06:54:42;;;;;;;13.68;4.30;;;;;;;;;;5085144;28;20469;-75
2022/11/01 06:57:08;;;;;;;20.23;4.78;;;;;;;;;;5081668;28;20051;-76
2022/11/01 06:59:34;;;;;;;14.80;4.80;;;;;;;;;;5084362;28;20028;-76
2022/11/01 07:02:00;;;;;;;14.90;4.93;;;;;;;;;;5085375;28;20036;-76
2022/11/01 07:04:28;;;;;;;16.20;4.82;;;;;;;;;;5096941;28;20036;-76
2022/11/01 07:06:53;;;;;;;16.63;5.47;;;;;;;;;;5074429;28;20032;-76
2022/11/01 07:09:19;;;;;;;21.70;6.20;;;;;;;;;;5079052;28;20368;-76
2022/11/01 07:11:45;;;;;;;14.65;5.82;;;;;;;;;;5077490;28;20028;-76
2022/11/01 07:14:12;;;;;;;15.68;4.97;;;;;;;;;;5075187;28;20055;-75
2022/11/01 07:16:38;;;;;;;12.80;5.90;;;;;;;;;;5083044;28;20107;-76
2022/11/01 07:19:04;;;;;;;18.23;5.97;;;;;;;;;;5089510;28;20037;-76
2022/11/01 07:21:30;;;;;;;16.23;4.30;;;;;;;;;;5097838;28;20027;-75
2022/11/01 07:23:56;;;;;;;17.83;6.22;;;;;;;;;;5076905;28;20083;-75
2022/11/01 07:26:22;;;;;;;12.80;4.43;;;;;;;;;;5078898;28;20040;-76
2022/11/01 07:28:48;;;;;;;12.88;5.00;;;;;;;;;;5077783;28;20423;-76
2022/11/01 07:31:15;;;;;;;12.52;5.10;;;;;;;;;;5086463;28;20157;-76
2022/11/01 07:33:41;;;;;;;18.05;7.38;;;;;;;;;;5078302;28;20769;-76
2022/11/01 07:36:07;;;;;;;19.35;6.88;;;;;;;;;;5092213;28;20072;-76
2022/11/01 07:38:33;;;;;;;20.13;7.45;;;;;;;;;;5083855;28;20035;-76
2022/11/01 07:40:59;;;;;;;16.42;5.30;;;;;;;;;;5093873;28;20100;-76
2022/11/01 07:43:25;;;;;;;12.13;4.82;;;;;;;;;;5092659;28;20028;-76
2022/11/01 07:45:52;;;;;;;11.38;4.65;;;;;;;;;;5078107;28;20531;-76
2022/11/01 07:48:18;;;;;;;11.60;4.13;;;;;;;;;;5088784;28;20532;-75
2022/11/01 07:50:45;;;;;;;10.73;5.90;;;;;;;;;;5080102;28;20052;-76
2022/11/01 07:53:12;;;;;;;13.40;7.13;;;;;;;;;;5086435;28;20112;-76
2022/11/01 07:55:38;;;;;;;17.63;8.05;;;;;;;;;;5082968;28;20101;-76
2022/11/01 07:58:05;;;;;;;17.08;9.98;;;;;;;;;;5087335;28;20039;-76
2022/11/01 08:00:31;;;;;;;18.92;11.95;;;;;;;;;;5078195;28;20048;-76
2022/11/01 08:03:01;;;;;;;15.48;10.07;;;;;;;;;;5084815;28;20496;-76
2022/11/01 08:05:27;;;;;;;15.18;8.38;;;;;;;;;;5074026;28;20035;-76
2022/11/01 08:07:53;;;;;;;20.25;8.77;;;;;;;;;;5086096;28;20075;-76
2022/11/01 08:10:19;;;;;;;15.10;7.72;;;;;;;;;;5086218;28;20028;-76
2022/11/01 08:12:46;;;;;;;12.93;5.70;;;;;;;;;;5090183;28;20073;-76
2022/11/01 08:15:12;;;;;;;17.65;5.47;;;;;;;;;;5080360;28;20035;-76
2022/11/01 08:17:38;;;;;;;12.90;5.40;;;;;;;;;;5080715;28;20036;-76
2022/11/01 08:20:05;;;;;;;11.43;4.93;;;;;;;;;;5081133;28;20056;-76
2022/11/01 08:22:31;;;;;;;16.73;4.47;;;;;;;;;;5083018;28;20033;-76
2022/11/01 08:24:58;;;;;;;13.27;5.20;;;;;;;;;;5086670;28;20044;-76
2022/11/01 08:27:23;;;;;;;11.85;4.68;;;;;;;;;;5089819;28;20039;-77
2022/11/01 08:29:49;;;;;;;17.20;6.90;;;;;;;;;;5088583;28;20028;-76
2022/11/01 08:32:19;;;;;;;12.75;6.50;;;;;;;;;;5090725;28;20065;-76
2022/11/01 08:34:45;;;;;;;14.85;6.60;;;;;;;;;;5084616;28;20036;-76
2022/11/01 08:37:11;;;;;;;14.30;8.25;;;;;;;;;;5088330;28;20101;-76
2022/11/01 08:39:37;;;;;;;15.18;7.65;;;;;;;;;;5097759;28;20058;-76
2022/11/01 08:42:04;;;;;;;15.45;8.00;;;;;;;;;;5094061;28;20472;-76
2022/11/01 08:44:30;;;;;;;10.77;6.32;;;;;;;;;;5090009;28;20128;-76
2022/11/01 08:46:59;;;;;;;14.50;7.07;;;;;;;;;;5088504;28;20798;-76
2022/11/01 08:49:25;;;;;;;13.43;5.88;;;;;;;;;;5076115;28;20029;-76
2022/11/01 08:51:51;;;;;;;15.32;6.05;;;;;;;;;;5088124;28;20085;-76
2022/11/01 08:54:17;;;;;;;12.40;6.18;;;;;;;;;;5078981;28;20111;-76
2022/11/01 08:56:43;;;;;;;19.67;6.40;;;;;;;;;;5081982;28;20038;-76
2022/11/01 08:59:09;;;;;;;16.15;6.75;;;;;;;;;;5088852;28;20107;-77
2022/11/01 09:01:36;;;;;;;13.63;5.43;;;;;;;;;;5091319;28;20032;-76
2022/11/01 09:04:02;;;;;;;13.85;5.50;;;;;;;;;;5086289;28;20445;-76
2022/11/01 09:06:28;;;;;;;11.52;4.40;;;;;;;;;;5077249;28;20082;-76
2022/11/01 09:08:55;;;;;;;15.20;6.15;;;;;;;;;;5084533;28;20466;-76
2022/11/01 09:11:22;;;;;;;14.10;5.15;;;;;;;;;;5067428;28;20979;-77
2022/11/01 09:13:49;;;;;;;13.85;5.65;;;;;;;;;;5096324;28;20102;-77
2022/11/01 09:16:15;;;;;;;13.88;5.45;;;;;;;;;;5093482;28;20074;-77
2022/11/01 09:18:41;;;;;;;12.98;5.68;;;;;;;;;;5086745;28;20028;-76
2022/11/01 09:21:07;;;;;;;9.40;4.68;;;;;;;;;;5088827;28;20035;-77
2022/11/01 09:23:34;;;;;;;16.80;5.35;;;;;;;;;;5084985;28;20024;-76
2022/11/01 09:26:08;;;;;;;12.90;4.25;;;;;;;;;;5089511;28;20082;-76
2022/11/01 09:28:35;;;;;;;17.02;4.55;;;;;;;;;;5087157;28;20027;-76
2022/11/01 09:31:02;;;;;;;19.35;4.75;;;;;;;;;;5099610;28;20116;-76
2022/11/01 09:33:28;;;;;;;15.30;5.22;;;;;;;;;;5091448;28;20059;-76
2022/11/01 09:35:54;;;;;;;12.75;6.03;;;;;;;;;;5084082;28;20104;-76
2022/11/01 09:38:20;;;;;;;14.63;9.07;;;;;;;;;;5086254;28;20103;-76
2022/11/01 09:40:48;;;;;;;17.10;9.02;;;;;;;;;;5083720;28;20111;-77
2022/11/01 09:43:17;;;;;;;14.55;5.88;;;;;;;;;;5081929;28;20029;-76
2022/11/01 09:45:43;;;;;;;9.65;5.28;;;;;;;;;;5077373;28;20036;-76
2022/11/01 09:48:09;;;;;;;13.93;6.35;;;;;;;;;;5086308;28;20133;-76
2022/11/01 09:50:39;;;;;;;15.80;6.22;;;;;;;;;;5088808;28;20050;-76
2022/11/01 09:53:09;;;;;;;15.88;7.35;;;;;;;;;;5089582;28;20385;-76
2022/11/01 09:55:41;;;;;;;19.80;6.50;;;;;;;;;;5082765;28;20081;-76
2022/11/01 09:58:13;;;;;;;13.95;6.90;;;;;;;;;;5080796;28;20029;-76
2022/11/01 10:00:41;;;;;;;17.70;5.97;;;;;;;;;;5083140;28;20036;-76
2022/11/01 10:03:33;;;;;;;11.30;5.60;;;;;;;;;;5085345;28;20028;-77
2022/11/01 10:06:03;;;;;;;14.05;5.93;;;;;;;;;;5087853;28;20043;-76
2022/11/01 10:08:36;;;;;;;14.65;4.30;;;;;;;;;;5083358;28;20052;-76
2022/11/01 10:11:09;;;;;;;11.82;5.00;;;;;;;;;;5087247;28;20032;-76
2022/11/01 10:13:40;;;;;;;13.27;5.07;;;;;;;;;;5087495;28;20465;-77
2022/11/01 10:16:25;;;;;;;13.77;5.25;;;;;;;;;;5081332;28;20064;-76
2022/11/01 10:18:59;;;;;;;14.35;5.65;;;;;;;;;;5082866;28;20032;-76
2022/11/01 10:21:26;;;;;;;16.27;7.65;;;;;;;;;;5089748;28;20043;-76
2022/11/01 10:23:53;;;;;;;20.25;7.50;;;;;;;;;;5088361;28;20107;-76
2022/11/01 10:26:21;;;;;;;17.92;8.18;;;;;;;;;;5086736;28;20873;-77
2022/11/01 10:28:51;;;;;;;15.77;6.15;;;;;;;;;;5073930;28;20031;-76
2022/11/01 10:31:21;;;;;;;15.13;6.30;;;;;;;;;;5081488;28;20120;-76
2022/11/01 10:33:51;;;;;;;12.35;5.88;;;;;;;;;;5079182;28;20110;-76
2022/11/01 10:36:19;;;;;;;15.50;6.00;;;;;;;;;;5090984;28;20074;-76
2022/11/01 10:38:50;;;;;;;14.13;4.65;;;;;;;;;;5075885;28;20032;-76
2022/11/01 10:41:35;;;;;;;13.07;4.70;;;;;;;;;;5087826;28;20036;-77
2022/11/01 10:44:03;;;;;;;11.25;5.22;;;;;;;;;;5071758;28;20102;-77
2022/11/01 10:46:31;;;;;;;13.23;5.13;;;;;;;;;;5079234;28;20039;-76
2022/11/01 10:48:59;;;;;;;12.48;4.72;;;;;;;;;;5079167;28;20393;-76
2022/11/01 10:51:28;;;;;;;14.82;4.97;;;;;;;;;;5090970;28;20036;-77
2022/11/01 10:53:57;;;;;;;12.50;4.72;;;;;;;;;;5086292;28;20055;-77
2022/11/01 10:56:29;;;;;;;13.73;5.20;;;;;;;;;;5091836;28;20365;-77
2022/11/01 10:59:02;;;;;;;17.48;5.10;;;;;;;;;;5081713;28;20028;-76
2022/11/01 11:01:30;;;;;;;17.40;5.05;;;;;;;;;;5081545;28;20380;-76
2022/11/01 11:04:00;;;;;;;22.20;6.38;;;;;;;;;;5087545;28;20657;-76
2022/11/01 11:06:26;;;;;;;19.17;5.00;;;;;;;;;;5091609;28;20148;-76
2022/11/01 11:08:54;;;;;;;15.52;5.05;;;;;;;;;;5088206;28;20485;-77
2022/11/01 11:11:26;;;;;;;12.15;4.70;;;;;;;;;;5078374;28;20470;-76
2022/11/01 11:13:53;;;;;;;11.88;4.57;;;;;;;;;;5075756;28;20032;-77
2022/11/01 11:16:30;;;;;;;9.75;3.80;;;;;;;;;;5089430;28;20035;-77
2022/11/01 11:19:14;;;;;;;12.50;4.80;;;;;;;;;;5091561;28;20029;-77
2022/11/01 11:21:42;;;;;;;15.35;5.82;;;;;;;;;;5091710;28;20035;-76
2022/11/01 11:24:18;;;;;;;24.42;15.77;;;;;;;;;;5087195;28;20032;-77
2022/11/01 11:26:44;;;;;;;14.45;5.15;;;;;;;;;;5080417;28;20182;-77
2022/11/01 11:29:17;;;;;;;12.68;5.63;;;;;;;;;;5090606;28;20717;-76
2022/11/01 11:31:43;;;;;;;12.15;5.05;;;;;;;;;;5090333;28;20054;-76
2022/11/01 11:34:12;;;;;;;28.25;12.23;;;;;;;;;;5093296;28;20020;-77
2022/11/01 11:36:42;;;;;;;15.80;5.88;;;;;;;;;;5089844;28;20040;-77
2022/11/01 11:39:22;;;;;;;13.52;5.22;;;;;;;;;;5085375;28;20031;-77
2022/11/01 11:41:48;;;;;;;18.60;6.95;;;;;;;;;;5080214;28;20098;-77
2022/11/01 11:44:44;;;;;;;18.67;10.07;;;;;;;;;;5090099;28;20745;-77
2022/11/01 11:47:17;;;;;;;15.43;6.68;;;;;;;;;;5076279;28;20063;-77
2022/11/01 11:49:43;;;;;;;12.95;4.22;;;;;;;;;;5095383;28;20017;-77
2022/11/01 11:52:23;;;;;;;10.50;4.18;;;;;;;;;;5085361;28;20377;-77
2022/11/01 11:54:49;;;;;;;12.13;5.00;;;;;;;;;;5087555;28;20032;-77
2022/11/01 11:57:23;;;;;;;14.05;4.60;;;;;;;;;;5089677;28;20034;-77
2022/11/01 11:59:52;;;;;;;16.90;5.60;;;;;;;;;;5083990;28;20056;-77
2022/11/01 12:02:23;;;;;;;14.15;5.75;;;;;;;;;;5079904;28;20043;-77
2022/11/01 12:04:55;;;;;;;12.68;5.30;;;;;;;;;;5100486;28;20060;-77
2022/11/01 12:07:22;;;;;;;17.77;5.95;;;;;;;;;;5080016;28;20044;-77
2022/11/01 12:09:49;;;;;;;17.65;5.57;;;;;;;;;;5094431;28;20031;-77
2022/11/01 12:12:16;;;;;;;17.13;6.93;;;;;;;;;;5081038;28;20036;-77
2022/11/01 12:14:42;;;;;;;14.07;6.47;;;;;;;;;;5084833;28;20016;-77
2022/11/01 12:17:44;;;;;;;12.65;5.10;;;;;;;;;;5085921;28;20028;-77
2022/11/01 12:20:15;;;;;;;14.40;4.40;;;;;;;;;;5030116;28;20037;-77
2022/11/01 12:22:48;;;;;;;18.60;5.55;;;;;;;;;;5069823;28;20072;-77
2022/11/01 12:25:17;;;;;;;11.73;4.03;;;;;;;;;;5084044;28;20596;-77
2022/11/01 12:27:48;;;;;;;14.73;4.68;;;;;;;;;;5081481;28;20470;-77
2022/11/01 12:30:19;;;;;;;14.93;4.07;;;;;;;;;;5101017;28;20046;-77
2022/11/01 12:32:48;;;;;;;12.30;3.90;;;;;;;;;;5100508;28;20427;-77
2022/11/01 12:35:34;;;;;;;13.77;4.15;;;;;;;;;;5092414;28;20030;-77
2022/11/01 12:38:00;;;;;;;14.63;3.58;;;;;;;;;;5082486;28;20040;-77
2022/11/01 12:40:31;;;;;;;10.60;3.42;;;;;;;;;;5088356;28;20036;-78
2022/11/01 12:43:06;;;;;;;10.07;3.47;;;;;;;;;;5078762;28;20043;-77
2022/11/01 12:45:36;;;;;;;14.68;3.00;;;;;;;;;;5096976;28;20047;-77
2022/11/01 12:48:06;;;;;;;9.80;2.80;;;;;;;;;;5093885;28;20068;-77
2022/11/01 12:50:35;;;;;;;11.23;3.35;;;;;;;;;;5100951;28;20023;-77
2022/11/01 12:53:08;;;;;;;10.73;2.85;;;;;;;;;;5085671;28;20465;-77
2022/11/01 12:55:37;;;;;;;9.48;2.60;;;;;;;;;;5087112;28;20048;-77
2022/11/01 12:58:05;;;;;;;9.35;2.45;;;;;;;;;;5094834;28;20478;-77
2022/11/01 13:00:36;;;;;;;13.27;4.30;;;;;;;;;;5085631;28;22197;-77
2022/11/01 13:03:11;;;;;;;14.68;3.22;;;;;;;;;;5087123;28;20111;-77
2022/11/01 13:05:43;;;;;;;15.27;3.40;;;;;;;;;;5095812;28;20415;-77
2022/11/01 13:08:09;;;;;;;10.10;3.10;;;;;;;;;;5098996;28;20492;-77
2022/11/01 13:10:37;;;;;;;10.80;2.80;;;;;;;;;;5087942;28;20028;-77
2022/11/01 13:13:22;;;;;;;10.98;3.13;;;;;;;;;;5092271;28;20020;-77
2022/11/01 13:16:17;;;;;;;10.70;3.13;;;;;;;;;;5088426;28;20024;-77
2022/11/01 13:18:49;;;;;;;9.80;3.20;;;;;;;;;;5073472;28;20064;-77
2022/11/01 13:21:15;;;;;;;;;;;;;;;;;;5100310;28;20104;-77
2022/11/01 13:23:51;;;;;;;10.77;3.72;;;;;;;;;;5095009;28;19955;-77
2022/11/01 13:26:34;;;;;;;8.27;3.00;;;;;;;;;;5088399;28;20051;-77
2022/11/01 13:29:00;;;;;;;;;;;;;;;;;;5083958;28;20032;-78
2022/11/01 13:31:30;;;;;;;9.15;3.65;;;;;;;;;;5079054;28;19912;-77
2022/11/01 13:34:11;;;;;;;11.60;4.20;;;;;;;;;;5095839;28;20035;-77
2022/11/01 13:36:41;;;;;;;11.77;4.00;;;;;;;;;;5083006;28;20040;-77
2022/11/01 13:39:13;;;;;;;11.68;3.45;;;;;;;;;;5095170;28;20107;-77
2022/11/01 13:41:39;;;;;;;;;;;;;;;;;;5078864;28;20032;-77
2022/11/01 13:44:10;;;;;;;15.27;4.00;;;;;;;;;;5084942;28;20443;-78
2022/11/01 13:46:44;;;;;;;12.30;3.88;;;;;;;;;;5086892;28;20469;-77
2022/11/01 13:49:33;;;;;;;12.75;3.20;;;;;;;;;;5077734;28;20104;-77
2022/11/01 13:52:09;;;;;;;12.82;3.88;;;;;;;;;;5058674;28;20567;-77
2022/11/01 13:54:43;;;;;;;12.68;3.88;;;;;;;;;;5088940;28;20039;-77
2022/11/01 13:57:12;;;;;;;10.43;3.30;;;;;;;;;;5085462;28;20400;-77
2022/11/01 13:59:40;;;;;;;11.10;2.60;;;;;;;;;;5090737;28;20032;-77
2022/11/01 14:02:25;;;;;;;11.60;3.42;;;;;;;;;;5083980;28;20024;-77
2022/11/01 14:05:08;;;;;;;8.60;2.45;;;;;;;;;;5092905;28;20043;-77
2022/11/01 14:07:38;;;;;;;11.57;3.20;;;;;;;;;;5075025;28;20021;-77
2022/11/01 14:10:16;;;;;;;13.60;3.03;;;;;;;;;;5089175;28;20036;-78
2022/11/01 14:12:58;;;;;;;7.65;1.77;;;;;;;;;;5083441;28;20023;-77
2022/11/01 14:15:28;;;;;;;9.00;2.63;;;;;;;;;;5089838;28;20115;-77
2022/11/01 14:17:54;;;;;;;6.25;1.58;;;;;;;;;;5090676;28;20063;-77
2022/11/01 14:20:23;;;;;;;6.15;1.65;;;;;;;;;;5092879;28;20115;-77
2022/11/01 14:22:49;;;;;;;10.98;2.85;;;;;;;;;;5090534;28;20032;-77
2022/11/01 14:25:15;;;;;;;9.30;2.42;;;;;;;;;;5089774;28;20478;-77
2022/11/01 14:27:42;;;;;;;10.18;3.22;;;;;;;;;;5093974;28;20246;-77
2022/11/01 14:30:28;;;;;;;10.18;2.97;;;;;;;;;;5093249;28;20059;-77
2022/11/01 14:32:56;;;;;;;8.10;2.97;;;;;;;;;;5082031;28;20020;-77
2022/11/01 14:35:42;;;;;;;8.13;2.25;;;;;;;;;;5088239;28;20046;-77
2022/11/01 14:38:14;;;;;;;8.60;1.75;;;;;;;;;;5077324;28;20051;-77
2022/11/01 14:40:42;;;;;;;7.65;2.05;;;;;;;;;;5091505;28;20040;-76
2022/11/01 14:43:18;;;;;;;6.03;1.75;;;;;;;;;;5090892;28;20028;-77
2022/11/01 14:45:46;;;;;;;7.30;1.80;;;;;;;;;;5101742;28;20041;-77
2022/11/01 14:48:13;;;;;;;10.25;1.80;;;;;;;;;;5081895;28;20074;-76